»·PEaware :: N690AC KYKM-KCLM

N690AC :: KYKM-KCLM

FLIGHT INFORMATION

Flight Status: Arrived
Operator: Privately registered:
United States
More flights under this callsign
Pilot: Alex K. (14822)
Aircraft: GULFSTREAM 690 COMMANDER 840/900
(AC90)
More flights by this aircraft type
Origin: KYKM Yakima Air Term/Mcallister
United States
Destination: KCLM Fairchild Intl
United States
More flights between these airports :: More routes between these airports
Route: +NACHES4 SEA
File this flight plan on PilotEdge
Remarks: oofda der guy
Altitude:
(Current/Filed)
20,000ft
Speed:
(Current/Filed)
300kts
Departed: 27-Aug-19 07:10 PM
Arrived: 27-Aug-19 07:52 PM
Distance/Time
Traveled:
152nm/0:42
Distance/Time
To Go:
Arrived

Flight Plot

Page will automatically refresh every two minutes.

Flight plan parsing failed; only flown route is shown


Map Options




Map Legend


Flown Route
Filed Route
Departure Airport
Arrival Airport
Navaid (VOR, NDB)
Fix

Horizontal Profiles

Position Reports

Time Latitude Longitude Heading Altitude Ground
Speed
27-Aug-19 19:00 46.567637 -120.531219 279 1070ft 0kts
27-Aug-19 19:01 46.567637 -120.531219 279 1070ft 0kts
27-Aug-19 19:02 46.567637 -120.531219 279 1070ft 0kts
27-Aug-19 19:03 46.567637 -120.531218 278 1070ft 0kts
27-Aug-19 19:04 46.567637 -120.531219 278 1070ft 0kts
27-Aug-19 19:05 46.567637 -120.531219 278 1070ft 0kts
27-Aug-19 19:06 46.567637 -120.531218 279 1070ft 0kts
27-Aug-19 19:07 46.567147 -120.531500 180 1070ft 7kts
27-Aug-19 19:08 46.565852 -120.532822 289 1071ft 38kts
27-Aug-19 19:09 46.583612 -120.577961 326 2380ft 169kts
27-Aug-19 19:10 46.627935 -120.608693 334 4503ft 183kts
27-Aug-19 19:11 46.674334 -120.640330 332 6708ft 188kts
27-Aug-19 19:12 46.705594 -120.699423 303 8864ft 184kts
27-Aug-19 19:13 46.735134 -120.762913 303 10428ft 201kts
27-Aug-19 19:14 46.766605 -120.830649 303 12541ft 203kts
27-Aug-19 19:15 46.797927 -120.898207 303 14537ft 201kts
27-Aug-19 19:16 46.828977 -120.965290 303 16389ft 199kts
27-Aug-19 19:17 46.859775 -121.032022 303 18105ft 197kts
27-Aug-19 19:18 46.890308 -121.098329 303 19668ft 196kts
27-Aug-19 19:19 46.923396 -121.170394 303 20091ft 239kts
27-Aug-19 19:20 46.963004 -121.256870 303 20100ft 266kts
27-Aug-19 19:21 47.004835 -121.348500 303 20104ft 272kts
27-Aug-19 19:22 47.046859 -121.440830 303 20107ft 272kts
27-Aug-19 19:23 47.089020 -121.533803 303 20097ft 273kts
27-Aug-19 19:24 47.129388 -121.623089 303 20083ft 273kts
27-Aug-19 19:25 47.171071 -121.715609 302 20061ft 274kts
27-Aug-19 19:26 47.213213 -121.809459 302 20036ft 274kts
27-Aug-19 19:27 47.255149 -121.903166 302 20009ft 274kts
27-Aug-19 19:28 47.297015 -121.997045 302 19988ft 274kts
27-Aug-19 19:29 47.338793 -122.091046 302 19971ft 274kts
27-Aug-19 19:30 47.380892 -122.186161 302 19389ft 287kts
27-Aug-19 19:31 47.424782 -122.285568 302 18168ft 295kts
27-Aug-19 19:32 47.476742 -122.380058 310 16414ft 300kts
27-Aug-19 19:33 47.530927 -122.472555 310 14207ft 295kts
27-Aug-19 19:34 47.579248 -122.555257 310 13960ft 239kts
27-Aug-19 19:35 47.624619 -122.617250 340 13979ft 215kts
27-Aug-19 19:36 47.686340 -122.650816 339 12813ft 257kts
27-Aug-19 19:37 47.754230 -122.688395 339 11674ft 266kts
27-Aug-19 19:38 47.823723 -122.726996 339 10580ft 267kts
27-Aug-19 19:39 47.893226 -122.765717 339 9514ft 266kts
27-Aug-19 19:40 47.962467 -122.804406 339 8478ft 265kts
27-Aug-19 19:41 48.027264 -122.850192 311 7984ft 247kts
27-Aug-19 19:42 48.048933 -122.943171 283 7843ft 236kts
27-Aug-19 19:43 48.065395 -123.039675 283 6240ft 237kts
27-Aug-19 19:44 48.080377 -123.130230 271 4614ft 207kts
27-Aug-19 19:45 48.069340 -123.210268 273 3015ft 190kts
27-Aug-19 19:46 48.079685 -123.276499 283 2984ft 153kts
27-Aug-19 19:47 48.089967 -123.334782 283 2833ft 139kts
27-Aug-19 19:48 48.098514 -123.383175 282 2027ft 111kts
27-Aug-19 19:49 48.106315 -123.427238 282 1337ft 114kts
27-Aug-19 19:50 48.114035 -123.471004 283 659ft 104kts
27-Aug-19 19:51 48.119692 -123.503777 281 266ft 17kts
27-Aug-19 19:52 48.118847 -123.505346 105 271ft 19kts
27-Aug-19 19:53 48.117245 -123.497317 263 268ft 11kts
27-Aug-19 19:54 48.117126 -123.498232 286 268ft 0kts
27-Aug-19 19:55 48.117126 -123.498232 286 268ft 0kts
27-Aug-19 19:56 48.117126 -123.498232 286 268ft 0kts

Navigation Log

Ident Type
Flight plan parsing failed, navigation log unavailable